createdAt,value
2022-11-04T00:02:09.225Z,8.18
2022-11-04T00:04:36.670Z,6.50
2022-11-04T00:07:23.719Z,8.38
2022-11-04T00:09:50.834Z,6.18
2022-11-04T00:12:26.770Z,6.60
2022-11-04T00:14:54.325Z,5.82
2022-11-04T00:17:24.199Z,9.07
2022-11-04T00:20:12.249Z,11.73
2022-11-04T00:22:59.849Z,9.13
2022-11-04T00:25:46.230Z,7.60
2022-11-04T00:28:34.916Z,6.85
2022-11-04T00:31:22.416Z,8.73
2022-11-04T00:34:02.110Z,9.73
2022-11-04T00:36:38.385Z,8.68
2022-11-04T00:39:08.470Z,6.68
2022-11-04T00:42:38.401Z,5.95
2022-11-04T00:44:57.663Z,7.00
2022-11-04T00:47:25.029Z,7.70
2022-11-04T00:49:52.158Z,6.82
2022-11-04T00:52:19.419Z,7.95
2022-11-04T00:54:46.636Z,8.13
2022-11-04T00:57:14.344Z,5.85
2022-11-04T00:59:42.036Z,5.90
2022-11-04T01:02:10.954Z,9.57
2022-11-04T01:05:21.826Z,5.47
2022-11-04T01:10:53.073Z,7.68
2022-11-04T01:13:20.150Z,5.28
2022-11-04T01:15:47.310Z,8.73
2022-11-04T01:18:14.455Z,5.10
2022-11-04T01:20:41.502Z,6.35
2022-11-04T01:23:08.704Z,6.28
2022-11-04T01:25:44.916Z,6.75
2022-11-04T01:28:15.630Z,5.45
2022-11-04T01:30:42.757Z,6.95
2022-11-04T01:33:09.953Z,5.57
2022-11-04T01:35:37.436Z,3.88
2022-11-04T01:38:04.555Z,4.18
2022-11-04T01:40:37.248Z,7.18
2022-11-04T01:43:06.500Z,6.13
2022-11-04T01:45:33.789Z,6.68
2022-11-04T01:48:08.461Z,4.70
2022-11-04T01:50:37.009Z,6.55
2022-11-04T01:53:15.351Z,4.07
2022-11-04T01:55:47.637Z,3.45
2022-11-04T02:00:47.406Z,4.22
2022-11-04T02:03:25.182Z,2.47
2022-11-04T02:05:52.860Z,4.43
2022-11-04T02:08:21.344Z,3.78
2022-11-04T02:10:58.083Z,3.05
2022-11-04T02:13:26.326Z,3.35
2022-11-04T02:15:59.108Z,3.53
2022-11-04T02:18:58.092Z,5.13
2022-11-04T02:21:53.303Z,2.30
2022-11-04T02:24:42.129Z,2.38
2022-11-04T02:27:39.796Z,2.47
2022-11-04T02:30:14.368Z,3.67
2022-11-04T02:33:06.729Z,3.97
2022-11-04T02:35:43.228Z,1.92
2022-11-04T02:38:41.266Z,2.78
2022-11-04T02:41:46.341Z,2.47
2022-11-04T02:44:19.259Z,3.05
2022-11-04T02:46:46.477Z,5.45
2022-11-04T02:49:18.849Z,8.48
2022-11-04T02:51:58.396Z,6.85
2022-11-04T02:54:49.814Z,9.32
2022-11-04T02:57:28.084Z,9.80
2022-11-04T03:00:04.096Z,9.00
2022-11-04T03:02:40.044Z,9.73
2022-11-04T03:05:12.453Z,10.95
2022-11-04T03:07:42.449Z,14.63
2022-11-04T03:10:19.124Z,12.82
2022-11-04T03:12:57.779Z,12.85
2022-11-04T03:15:32.789Z,13.23
2022-11-04T03:18:18.794Z,18.38
2022-11-04T03:20:48.853Z,15.85
2022-11-04T03:23:16.675Z,17.10
2022-11-04T03:25:52.068Z,19.63
2022-11-04T03:28:30.838Z,18.60
2022-11-04T03:31:03.265Z,14.25
2022-11-04T03:33:48.362Z,12.48
2022-11-04T03:36:16.560Z,12.93
2022-11-04T03:38:44.509Z,16.83
2022-11-04T03:41:38.794Z,12.48
2022-11-04T03:44:05.903Z,19.45
2022-11-04T03:46:33.310Z,15.40
2022-11-04T03:49:02.178Z,18.95
2022-11-04T03:51:29.247Z,17.95
2022-11-04T03:53:57.385Z,14.80
2022-11-04T03:56:49.201Z,16.02
2022-11-04T03:59:19.375Z,11.97
2022-11-04T04:02:02.419Z,15.73
2022-11-04T04:04:33.072Z,11.82
2022-11-04T04:07:15.058Z,12.80
2022-11-04T04:10:35.683Z,11.40
2022-11-04T04:13:20.724Z,10.93
2022-11-04T04:16:19.331Z,10.32
2022-11-04T04:19:05.917Z,10.15
2022-11-04T04:21:40.334Z,11.73
2022-11-04T04:24:28.325Z,7.57
2022-11-04T04:27:15.357Z,12.13
2022-11-04T04:29:45.406Z,10.63
2022-11-04T04:32:14.113Z,7.85
2022-11-04T04:34:41.374Z,6.93
2022-11-04T04:37:20.090Z,8.27
2022-11-04T04:40:12.324Z,9.43
2022-11-04T04:42:58.207Z,10.45
2022-11-04T04:45:38.064Z,8.80
2022-11-04T04:48:07.108Z,11.55
2022-11-04T04:50:45.677Z,11.38
2022-11-04T04:53:12.924Z,12.05
2022-11-04T04:55:41.713Z,8.52
2022-11-04T04:58:09.658Z,11.60
2022-11-04T05:00:36.858Z,12.98
2022-11-04T05:03:04.081Z,15.60
2022-11-04T05:05:31.186Z,10.70
2022-11-04T05:08:08.401Z,13.95
2022-11-04T05:10:35.915Z,15.93
2022-11-04T05:13:21.897Z,21.55
2022-11-04T05:15:49.090Z,16.70
2022-11-04T05:18:16.247Z,16.48
2022-11-04T05:20:43.336Z,19.83
2022-11-04T05:23:12.274Z,16.98
2022-11-04T05:25:41.271Z,16.25
2022-11-04T05:28:09.016Z,22.58
2022-11-04T05:30:36.810Z,22.25
2022-11-04T05:33:05.211Z,19.13
2022-11-04T05:35:33.629Z,18.33
2022-11-04T05:38:00.805Z,26.20
2022-11-04T05:40:27.938Z,19.75
2022-11-04T05:42:58.707Z,27.50
2022-11-04T05:45:27.217Z,18.33
2022-11-04T05:48:02.021Z,24.52
2022-11-04T05:50:30.283Z,20.33
2022-11-04T05:53:01.329Z,18.23
2022-11-04T05:55:28.918Z,27.88
2022-11-04T05:57:58.005Z,16.98
2022-11-04T06:00:27.104Z,17.80
2022-11-04T06:02:58.599Z,22.38
2022-11-04T06:05:27.434Z,17.20
2022-11-04T06:07:55.742Z,22.50
2022-11-04T06:10:23.450Z,18.25
2022-11-04T06:12:50.948Z,23.92
2022-11-04T06:15:18.101Z,23.27
2022-11-04T06:17:45.210Z,16.70
2022-11-04T06:20:12.451Z,15.75
2022-11-04T06:22:39.536Z,17.42
2022-11-04T06:25:06.853Z,19.38
2022-11-04T06:27:33.903Z,15.00
2022-11-04T06:30:00.946Z,16.80
2022-11-04T06:32:28.085Z,19.00
2022-11-04T06:34:55.350Z,12.60
2022-11-04T06:37:22.444Z,15.80
2022-11-04T06:39:49.515Z,20.30
2022-11-04T06:42:16.636Z,15.80
2022-11-04T06:44:43.744Z,20.50
2022-11-04T06:47:10.911Z,15.60
2022-11-04T06:49:38.261Z,17.10
2022-11-04T06:52:05.360Z,13.55
2022-11-04T06:54:32.490Z,12.00
2022-11-04T06:56:59.629Z,10.48
2022-11-04T06:59:26.860Z,12.57
2022-11-04T07:01:54.064Z,15.02
2022-11-04T07:04:21.309Z,14.05
2022-11-04T07:06:48.610Z,8.45
2022-11-04T07:09:16.554Z,16.27
2022-11-04T07:11:45.428Z,12.30
2022-11-04T07:14:13.265Z,11.27
2022-11-04T07:16:40.375Z,9.20
2022-11-04T07:19:07.812Z,7.97
2022-11-04T07:21:34.912Z,7.72
2022-11-04T07:24:02.795Z,8.75
2022-11-04T07:26:29.995Z,6.70
2022-11-04T07:28:58.165Z,7.60
2022-11-04T07:31:25.590Z,6.70
2022-11-04T07:33:53.783Z,9.68
2022-11-04T07:36:21.356Z,9.13
2022-11-04T07:38:48.665Z,9.43
2022-11-04T07:41:16.759Z,7.70
2022-11-04T07:43:47.926Z,11.68
2022-11-04T07:46:15.028Z,5.95
2022-11-04T07:48:42.224Z,7.70
2022-11-04T07:51:13.147Z,11.63
2022-11-04T07:53:40.297Z,9.27
2022-11-04T07:56:11.694Z,6.57
2022-11-04T07:58:39.412Z,12.85
2022-11-04T08:01:12.760Z,11.25
2022-11-04T08:03:40.106Z,10.68
2022-11-04T08:06:09.201Z,12.77
2022-11-04T08:08:37.450Z,12.10
2022-11-04T08:11:16.790Z,10.90
2022-11-04T08:13:45.157Z,12.68
2022-11-04T08:16:15.267Z,27.23
2022-11-04T08:18:43.543Z,10.13
2022-11-04T08:21:11.603Z,10.27
2022-11-04T08:23:39.031Z,12.43
2022-11-04T08:26:14.533Z,10.40
2022-11-04T08:28:41.860Z,16.58
2022-11-04T08:31:15.639Z,11.82
2022-11-04T08:33:43.212Z,11.50
2022-11-04T08:36:29.913Z,11.48
2022-11-04T08:38:57.680Z,11.50
2022-11-04T08:41:29.163Z,13.02
2022-11-04T08:44:00.135Z,10.40
2022-11-04T08:46:34.914Z,12.50
2022-11-04T08:49:07.093Z,8.82
2022-11-04T08:51:39.252Z,8.98
2022-11-04T08:54:10.929Z,11.35
2022-11-04T08:56:40.235Z,8.98
2022-11-04T08:59:08.324Z,10.32
2022-11-04T09:01:39.128Z,8.07
2022-11-04T09:04:07.433Z,6.72
2022-11-04T09:06:37.720Z,14.88
2022-11-04T09:09:07.144Z,16.65
2022-11-04T09:11:38.664Z,10.25
2022-11-04T09:14:06.409Z,11.32
2022-11-04T09:16:35.534Z,10.27
2022-11-04T09:19:03.160Z,7.40
2022-11-04T09:21:30.337Z,11.50
2022-11-04T09:23:57.660Z,10.88
2022-11-04T09:26:25.824Z,13.02
2022-11-04T09:28:58.035Z,20.48
2022-11-04T09:31:27.774Z,14.77
2022-11-04T09:33:56.016Z,15.98
2022-11-04T09:36:23.773Z,10.32
2022-11-04T09:38:51.002Z,16.02
2022-11-04T09:41:30.201Z,12.38
2022-11-04T09:44:03.236Z,14.43
2022-11-04T09:46:33.768Z,19.30
2022-11-04T09:49:03.379Z,27.48
2022-11-04T09:51:53.222Z,16.52
2022-11-04T09:54:41.895Z,10.75
2022-11-04T09:57:20.337Z,14.88
2022-11-04T09:59:48.180Z,14.43
2022-11-04T10:02:50.526Z,7.13
2022-11-04T10:05:20.684Z,8.02
2022-11-04T10:08:18.041Z,7.25
2022-11-04T10:11:05.638Z,8.48
2022-11-04T10:13:41.861Z,7.65
2022-11-04T10:16:31.013Z,9.38
2022-11-04T10:19:32.047Z,9.23
2022-11-04T10:22:19.334Z,9.43
2022-11-04T10:24:52.826Z,8.10
2022-11-04T10:27:30.277Z,9.00
2022-11-04T10:30:34.733Z,10.43
2022-11-04T10:33:28.328Z,8.82
2022-11-04T10:36:02.882Z,13.90
2022-11-04T10:38:33.964Z,7.70
2022-11-04T10:41:06.904Z,11.10
2022-11-04T10:43:39.330Z,6.35
2022-11-04T10:46:20.452Z,7.35
2022-11-04T10:49:26.438Z,7.40
2022-11-04T10:51:55.825Z,8.50
2022-11-04T10:54:25.738Z,14.82
2022-11-04T10:56:55.295Z,12.13
2022-11-04T10:59:30.324Z,11.10
2022-11-04T11:02:02.176Z,14.43
2022-11-04T11:04:35.166Z,12.25
2022-11-04T11:07:08.565Z,13.90
2022-11-04T11:09:53.827Z,13.38
2022-11-04T11:12:55.894Z,13.13
2022-11-04T11:15:33.322Z,10.25
2022-11-04T11:18:07.804Z,12.10
2022-11-04T11:20:38.132Z,11.20
2022-11-04T11:23:09.823Z,8.70
2022-11-04T11:25:45.310Z,9.35
2022-11-04T11:28:24.042Z,9.98
2022-11-04T11:31:01.177Z,11.32
2022-11-04T11:33:30.446Z,11.93
2022-11-04T11:36:13.053Z,13.77
2022-11-04T11:41:25.179Z,15.32
2022-11-04T11:43:54.557Z,15.02
2022-11-04T11:46:28.109Z,12.90
2022-11-04T11:49:06.401Z,15.98
2022-11-04T11:51:43.860Z,6.75
2022-11-04T11:54:35.995Z,11.90
2022-11-04T11:57:40.318Z,24.40
2022-11-04T12:03:18.061Z,10.73
2022-11-04T12:12:01.750Z,10.63
2022-11-04T12:14:49.073Z,10.88
2022-11-04T12:17:32.408Z,10.38
2022-11-04T12:20:20.351Z,8.77
2022-11-04T12:23:13.201Z,11.32
2022-11-04T12:26:14.744Z,6.20
2022-11-04T12:29:03.221Z,31.67
2022-11-04T12:31:30.432Z,6.72
2022-11-04T12:34:00.588Z,9.30
2022-11-04T12:36:43.847Z,17.85
2022-11-04T12:39:39.608Z,14.00
2022-11-04T12:42:20.984Z,27.38
2022-11-04T12:45:03.709Z,19.77
2022-11-04T12:47:47.602Z,12.93
2022-11-04T12:50:33.650Z,6.78
2022-11-04T12:53:13.486Z,6.25
2022-11-04T12:55:48.910Z,5.40
2022-11-04T12:58:27.943Z,8.88
2022-11-04T13:01:02.120Z,59.45
2022-11-04T13:04:01.501Z,5.25
2022-11-04T13:06:34.330Z,10.38
2022-11-04T13:09:18.304Z,18.08
2022-11-04T13:11:54.650Z,18.45
2022-11-04T13:14:30.757Z,8.50
2022-11-04T13:17:06.428Z,18.35
2022-11-04T13:19:47.375Z,4.25
2022-11-04T13:22:23.224Z,8.18
2022-11-04T13:25:04.017Z,4.32
2022-11-04T13:27:37.174Z,3.05
2022-11-04T13:30:15.542Z,4.97
2022-11-04T13:33:05.454Z,3.75
2022-11-04T13:36:03.639Z,4.80
2022-11-04T13:38:41.583Z,4.07
2022-11-04T13:41:35.150Z,3.10
2022-11-04T13:44:05.735Z,3.92
2022-11-04T13:46:34.822Z,3.28
2022-11-04T13:49:10.881Z,2.50
2022-11-04T13:51:41.613Z,2.35
2022-11-04T13:54:27.079Z,6.47
2022-11-04T13:57:27.839Z,3.85
2022-11-04T14:00:13.281Z,5.03
2022-11-04T14:02:47.605Z,2.80
2022-11-04T14:05:31.297Z,2.30
2022-11-04T14:08:01.673Z,4.63
2022-11-04T14:10:50.553Z,6.75
2022-11-04T14:13:37.901Z,3.17
2022-11-04T14:16:25.388Z,3.95
2022-11-04T14:18:54.344Z,4.60
2022-11-04T14:21:27.059Z,3.83
2022-11-04T14:24:00.732Z,5.47
2022-11-04T14:26:48.470Z,4.22
2022-11-04T14:29:29.364Z,21.35
2022-11-04T14:31:59.430Z,11.95
2022-11-04T14:34:33.584Z,20.63
2022-11-04T14:37:19.001Z,33.80
2022-11-04T14:39:53.851Z,5.63
2022-11-04T14:42:51.299Z,8.60
2022-11-04T14:45:24.873Z,5.40
2022-11-04T14:48:15.823Z,3.95
2022-11-04T14:50:53.847Z,6.60
2022-11-04T14:53:37.390Z,6.43
2022-11-04T14:56:12.396Z,3.15
2022-11-04T14:58:39.648Z,5.22
2022-11-04T15:01:07.843Z,4.82
2022-11-04T15:04:13.938Z,5.07
2022-11-04T15:06:53.294Z,4.32
2022-11-04T15:09:27.783Z,4.55
2022-11-04T15:12:40.195Z,5.05
2022-11-04T15:15:27.065Z,8.38
2022-11-04T15:18:06.802Z,7.20
2022-11-04T15:20:38.371Z,5.20
2022-11-04T15:23:13.226Z,6.53
2022-11-04T15:25:48.792Z,4.15
2022-11-04T15:28:35.542Z,4.22
2022-11-04T15:31:12.437Z,5.85
2022-11-04T15:33:43.772Z,5.80
2022-11-04T15:36:29.499Z,4.45
2022-11-04T15:39:10.992Z,1.95
2022-11-04T15:41:59.169Z,4.80
2022-11-04T15:44:29.257Z,3.63
2022-11-04T15:47:02.542Z,6.75
2022-11-04T15:49:32.598Z,2.50
2022-11-04T15:52:05.198Z,3.10
2022-11-04T15:54:36.213Z,3.33
2022-11-04T15:57:18.253Z,5.70
2022-11-04T16:00:02.573Z,4.18
2022-11-04T16:03:01.201Z,4.90
2022-11-04T16:05:37.105Z,2.75
2022-11-04T16:08:27.472Z,3.28
2022-11-04T16:11:18.301Z,4.95
2022-11-04T16:13:46.581Z,4.78
2022-11-04T16:16:27.555Z,2.97
2022-11-04T16:18:58.643Z,5.40
2022-11-04T16:21:37.778Z,5.55
2022-11-04T16:24:36.774Z,5.05
2022-11-04T16:27:08.154Z,2.38
2022-11-04T16:29:37.598Z,3.03
2022-11-04T16:32:31.993Z,4.57
2022-11-04T16:35:06.973Z,8.48
2022-11-04T16:37:34.298Z,4.90
2022-11-04T16:40:01.770Z,3.25
2022-11-04T16:42:38.533Z,4.00
2022-11-04T16:45:10.634Z,10.98
2022-11-04T16:47:43.081Z,6.22
2022-11-04T16:50:15.915Z,3.67
2022-11-04T16:52:44.416Z,5.57
2022-11-04T16:55:13.467Z,3.33
2022-11-04T16:57:48.506Z,4.35
2022-11-04T17:00:22.799Z,5.97
2022-11-04T17:02:50.380Z,6.45
2022-11-04T17:05:18.574Z,3.88
2022-11-04T17:07:52.837Z,7.07
2022-11-04T17:10:24.835Z,7.38
2022-11-04T17:12:52.259Z,5.43
2022-11-04T17:15:19.557Z,8.63
2022-11-04T17:17:46.868Z,6.25
2022-11-04T17:20:17.655Z,4.90
2022-11-04T17:22:47.008Z,9.05
2022-11-04T17:25:20.925Z,8.52
2022-11-04T17:27:48.710Z,10.77
2022-11-04T17:30:17.125Z,6.70
2022-11-04T17:32:53.053Z,14.50
2022-11-04T17:35:20.189Z,9.65
2022-11-04T17:37:47.831Z,9.32
2022-11-04T17:40:17.944Z,6.32
2022-11-04T17:43:10.306Z,4.82
2022-11-04T17:45:39.129Z,6.43
2022-11-04T17:48:06.529Z,7.53
2022-11-04T17:50:34.497Z,7.63
2022-11-04T17:53:01.578Z,4.45
2022-11-04T17:55:28.883Z,8.93
2022-11-04T17:57:56.488Z,6.40
2022-11-04T18:00:29.718Z,4.15
2022-11-04T18:02:57.555Z,8.45
2022-11-04T18:05:24.686Z,9.18
2022-11-04T18:07:53.960Z,7.53
2022-11-04T18:10:21.132Z,11.15
2022-11-04T18:12:48.373Z,7.75
2022-11-04T18:15:19.041Z,7.95
2022-11-04T18:17:46.926Z,7.80
2022-11-04T18:20:15.510Z,9.77
2022-11-04T18:22:43.456Z,12.07
2022-11-04T18:25:11.961Z,7.57
2022-11-04T18:27:39.307Z,13.30
2022-11-04T18:30:08.021Z,9.93
2022-11-04T18:32:45.297Z,12.70
2022-11-04T18:35:23.058Z,10.15
2022-11-04T18:37:50.587Z,20.60
2022-11-04T18:40:18.026Z,13.13
2022-11-04T18:42:45.342Z,10.65
2022-11-04T18:45:12.981Z,8.23
2022-11-04T18:47:40.539Z,8.07
2022-11-04T18:52:58.434Z,8.15
2022-11-04T18:55:34.242Z,8.23
2022-11-04T18:58:01.777Z,12.20
2022-11-04T19:00:29.480Z,12.77
2022-11-04T19:02:57.096Z,9.52
2022-11-04T19:05:25.130Z,11.18
2022-11-04T19:07:53.024Z,9.50
2022-11-04T19:10:20.310Z,8.95
2022-11-04T19:13:05.849Z,10.05
2022-11-04T19:15:35.831Z,11.25
2022-11-04T19:18:03.021Z,10.73
2022-11-04T19:20:37.031Z,10.90
2022-11-04T19:23:19.443Z,12.70
2022-11-04T19:25:46.540Z,8.63
2022-11-04T19:28:33.119Z,11.80
2022-11-04T19:31:02.144Z,11.55
2022-11-04T19:33:30.491Z,11.32
2022-11-04T19:35:58.917Z,15.23
2022-11-04T19:38:26.459Z,15.38
2022-11-04T19:40:54.585Z,14.20
2022-11-04T19:43:23.296Z,16.92
2022-11-04T19:45:50.750Z,13.35
2022-11-04T19:48:19.287Z,11.75
2022-11-04T19:53:31.560Z,19.45
2022-11-04T19:55:58.750Z,18.00
2022-11-04T19:58:25.979Z,23.08
2022-11-04T20:00:53.152Z,17.50
2022-11-04T20:03:20.428Z,20.40
2022-11-04T20:05:48.294Z,17.58
2022-11-04T20:08:15.418Z,18.90
2022-11-04T20:10:43.613Z,19.60
2022-11-04T20:13:34.917Z,17.65
2022-11-04T20:16:03.404Z,21.05
2022-11-04T20:18:30.524Z,22.70
2022-11-04T20:20:57.594Z,23.23
2022-11-04T20:23:24.723Z,20.63
2022-11-04T20:25:52.565Z,18.77
2022-11-04T20:28:19.702Z,19.77
2022-11-04T20:30:46.888Z,19.23
2022-11-04T20:33:14.785Z,22.13
2022-11-04T20:35:42.101Z,22.63
2022-11-04T20:38:10.181Z,20.05
2022-11-04T20:40:38.609Z,20.60
2022-11-04T20:43:05.842Z,24.58
2022-11-04T20:45:33.027Z,21.08
2022-11-04T20:48:00.173Z,23.25
2022-11-04T20:50:27.343Z,26.15
2022-11-04T20:52:54.550Z,21.20
2022-11-04T20:55:21.836Z,24.25
2022-11-04T20:57:49.123Z,22.45
2022-11-04T21:00:16.505Z,24.77
2022-11-04T21:02:43.777Z,27.80
2022-11-04T21:05:10.991Z,30.65
2022-11-04T21:07:40.157Z,28.60
2022-11-04T21:10:07.566Z,35.60
2022-11-04T21:12:34.839Z,49.40
2022-11-04T21:15:01.911Z,50.53
2022-11-04T21:17:29.185Z,44.13
2022-11-04T21:19:56.310Z,36.55
2022-11-04T21:22:23.542Z,34.28
2022-11-04T21:24:50.819Z,36.10
2022-11-04T21:27:18.028Z,42.55
2022-11-04T21:29:45.261Z,39.53
2022-11-04T21:32:12.376Z,30.27
2022-11-04T21:34:39.474Z,30.58
2022-11-04T21:37:06.673Z,34.53
2022-11-04T21:39:33.723Z,33.97
2022-11-04T21:42:01.357Z,37.45
2022-11-04T21:44:28.617Z,31.88
2022-11-04T21:46:56.222Z,30.15
2022-11-04T21:49:23.370Z,32.63
2022-11-04T21:51:50.579Z,31.17
2022-11-04T21:54:17.935Z,29.20
2022-11-04T21:56:46.616Z,30.10
2022-11-04T21:59:18.151Z,29.48
2022-11-04T22:01:49.121Z,24.73
2022-11-04T22:04:16.621Z,26.15
2022-11-04T22:06:53.182Z,28.58
2022-11-04T22:09:20.679Z,24.95
2022-11-04T22:11:48.937Z,22.58
2022-11-04T22:14:16.172Z,22.52
2022-11-04T22:16:43.328Z,23.42
2022-11-04T22:19:13.692Z,21.75
2022-11-04T22:21:43.862Z,26.27
2022-11-04T22:24:12.715Z,21.23
2022-11-04T22:26:40.352Z,25.88
2022-11-04T22:29:08.582Z,21.40
2022-11-04T22:31:40.711Z,21.02
2022-11-04T22:34:07.917Z,20.48
2022-11-04T22:36:35.376Z,23.23
2022-11-04T22:39:03.401Z,22.73
2022-11-04T22:41:32.418Z,21.65
2022-11-04T22:43:59.762Z,15.48
2022-11-04T22:46:29.201Z,21.05
2022-11-04T22:48:56.550Z,20.98
2022-11-04T22:51:23.790Z,22.23
2022-11-04T22:53:58.882Z,21.05
2022-11-04T22:56:28.784Z,16.23
2022-11-04T22:58:55.955Z,18.38
2022-11-04T23:01:23.450Z,15.75
2022-11-04T23:03:52.108Z,15.05
2022-11-04T23:06:19.909Z,14.77
2022-11-04T23:08:47.118Z,21.80
2022-11-04T23:11:37.945Z,17.42
2022-11-04T23:14:23.516Z,19.38
2022-11-04T23:17:10.110Z,20.35
2022-11-04T23:19:38.383Z,19.67
2022-11-04T23:22:25.232Z,18.85
2022-11-04T23:25:11.142Z,14.93
2022-11-04T23:28:01.337Z,18.27
2022-11-04T23:30:31.347Z,17.90
2022-11-04T23:33:00.717Z,16.45
2022-11-04T23:35:52.465Z,13.25
2022-11-04T23:38:20.481Z,14.33
2022-11-04T23:41:08.530Z,16.33
2022-11-04T23:43:36.293Z,15.23
2022-11-04T23:46:21.787Z,19.00
2022-11-04T23:49:08.009Z,12.63
2022-11-04T23:51:53.750Z,13.57
2022-11-04T23:54:39.463Z,13.15
2022-11-04T23:57:31.627Z,13.00
